Time;durP1;ratioP1;P1;durP2;ratioP2;P2;SDS_P1;SDS_P2;PMS_P1;PMS_P2;Temp;Humidity;BMP_temperature;BMP_pressure;BME280_temperature;BME280_humidity;BME280_pressure;Samples;Min_cycle;Max_cycle;Signal;HPM_P1;HPM_P2
2023/07/10 00:01:37;;;;;;;;;;;;;;;10.11;100.00;99894.50;4991580;28;20024;-81
2023/07/10 00:04:05;;;;;;;;;;;;;;;9.97;100.00;99889.75;4984905;28;20005;-83
2023/07/10 00:06:30;;;;;;;;;;;;;;;9.88;100.00;99890.09;4993095;28;20293;-82
2023/07/10 00:08:55;;;;;;;;;;;;;;;9.81;100.00;99893.91;4993444;28;20349;-81
2023/07/10 00:11:30;;;;;;;;;;;;;;;9.81;100.00;99888.59;4991751;28;20000;-80
2023/07/10 00:13:56;;;;;;;;;;;;;;;9.84;100.00;99887.63;4992876;28;20400;-86
2023/07/10 07:52:45;;;;;;;;;;;;;;;12.07;100.00;100199.53;5894188;22;19988;-85
2023/07/10 07:55:10;;;;;;;;;;;;;;;12.52;100.00;100203.78;4968077;28;19925;-91
2023/07/10 07:57:37;;;;;;;;;;;;;;;12.68;100.00;100205.75;4984678;28;19977;-88
2023/07/10 08:00:02;;;;;;;;;;;;;;;12.79;100.00;100208.78;4983866;28;20098;-87
2023/07/10 08:02:28;;;;;;;;;;;;;;;12.14;100.00;100203.66;4983802;28;19925;-86
2023/07/10 08:04:53;;;;;;;;;;;;;;;11.87;100.00;100203.00;4966678;28;20332;-87
2023/07/10 08:07:19;;;;;;;;;;;;;;;11.76;100.00;100195.47;4982997;28;19921;-87
2023/07/10 08:09:46;;;;;;;;;;;;;;;12.02;100.00;100195.34;4966442;28;19925;-93
2023/07/10 08:12:12;;;;;;;;;;;;;;;12.46;100.00;100192.53;4966358;28;19922;-87
2023/07/10 08:14:37;;;;;;;;;;;;;;;12.68;100.00;100188.03;4983676;28;19929;-88
2023/07/10 08:17:02;;;;;;;;;;;;;;;12.61;100.00;100199.00;4966030;28;20108;-87
2023/07/10 08:19:28;;;;;;;;;;;;;;;12.59;100.00;100206.16;4966090;28;19918;-87
2023/07/10 08:21:57;;;;;;;;;;;;;;;12.81;100.00;100192.75;4964738;28;19922;-86
2023/07/10 08:24:22;;;;;;;;;;;;;;;12.94;100.00;100195.72;4966114;28;19918;-87
2023/07/10 08:26:48;;;;;;;;;;;;;;;12.26;100.00;100191.63;4965722;28;19938;-87
2023/07/10 08:29:24;;;;;;;;;;;;;;;11.92;100.00;100189.56;4982190;28;19921;-87
2023/07/10 08:31:49;;;;;;;;;;;;;;;11.83;100.00;100188.13;4980720;28;19919;-88
2023/07/10 08:34:14;;;;;;;;;;;;;;;11.74;100.00;100189.38;4965595;28;19929;-86
2023/07/10 08:36:40;;;;;;;;;;;;;;;11.61;100.00;100180.16;4981822;28;19929;-88
2023/07/10 08:39:05;;;;;;;;;;;;;;;11.56;100.00;100182.16;4965813;28;19918;-87
2023/07/10 08:41:33;;;;;;;;;;;;;;;11.47;100.00;100188.69;4983069;28;19921;-93
2023/07/10 08:43:58;;;;;;;;;;;;;;;12.14;100.00;100195.69;4965625;28;19957;-88
2023/07/10 08:46:25;;;;;;;;;;;;;;;12.49;100.00;100193.28;4981012;28;20349;-87
2023/07/10 08:48:50;;;;;;;;;;;;;;;12.65;100.00;100193.47;4981514;28;19956;-86
2023/07/10 08:51:21;;;;;;;;;;;;;;;12.13;100.00;100199.28;4983010;28;19969;-86
2023/07/10 08:53:52;;;;;;;;;;;;;;;12.13;100.00;100201.91;4970284;28;19928;-86
2023/07/10 08:56:22;;;;;;;;;;;;;;;12.62;100.00;100200.69;5002365;28;20075;-86
2023/07/10 08:58:47;;;;;;;;;;;;;;;12.81;100.00;100196.31;4984918;28;19961;-87
2023/07/10 09:01:20;;;;;;;;;;;;;;;12.83;100.00;100205.06;5002185;28;20000;-86
2023/07/10 09:03:47;;;;;;;;;;;;;;;12.32;100.00;100204.66;4985047;28;20159;-86
2023/07/10 09:06:18;;;;;;;;;;;;;;;12.67;100.00;100204.03;5002219;28;19922;-86
2023/07/10 09:08:44;;;;;;;;;;;;;;;12.92;100.00;100202.91;4995241;28;19957;-86
2023/07/10 09:11:12;;;;;;;;;;;;;;;12.96;100.00;100205.38;5002227;28;19917;-87
2023/07/10 09:13:46;;;;;;;;;;;;;;;12.58;100.00;100196.47;4979662;28;19969;-86
2023/07/10 09:16:19;;;;;;;;;;;;;;;11.99;100.00;100204.31;4984148;28;19918;-87
2023/07/10 09:18:51;;;;;;;;;;;;;;;12.26;100.00;100201.41;4984076;28;20025;-85
2023/07/10 09:21:18;;;;;;;;;;;;;;;12.73;100.00;100198.41;5002397;28;20575;-86
2023/07/10 09:23:44;;;;;;;;;;;;;;;12.88;100.00;100192.41;5000617;28;19918;-88
2023/07/10 09:26:20;;;;;;;;;;;;;;;13.03;100.00;100206.78;4984721;28;20383;-87
2023/07/10 09:29:14;;;;;;;;;;;;;;;12.90;100.00;100193.19;5001408;28;19960;-87
2023/07/10 09:31:57;;;;;;;;;;;;;;;13.12;100.00;100186.03;4962833;28;20361;-87
2023/07/10 09:34:26;;;;;;;;;;;;;;;15.39;100.00;100184.13;4983390;28;19918;-85
2023/07/10 09:36:52;;;;;;;;;;;;;;;13.51;100.00;100191.25;5001059;28;19913;-85
2023/07/10 09:39:18;;;;;;;;;;;;;;;12.74;100.00;100200.16;4984650;28;19965;-85
2023/07/10 09:41:44;;;;;;;;;;;;;;;12.86;100.00;100196.06;5001219;28;19967;-86
2023/07/10 09:44:12;;;;;;;;;;;;;;;13.13;100.00;100196.59;5004216;28;20260;-86
2023/07/10 09:46:38;;;;;;;;;;;;;;;13.26;100.00;100196.88;5006379;28;19923;-86
2023/07/10 09:49:19;;;;;;;;;;;;;;;13.08;100.00;100190.63;4987964;28;19918;-86
2023/07/10 09:52:03;;;;;;;;;;;;;;;12.45;100.00;100189.03;4985825;28;19925;-87
2023/07/10 09:54:39;;;;;;;;;;;;;;;12.15;100.00;100191.22;4970504;28;19926;-86
2023/07/10 09:57:10;;;;;;;;;;;;;;;11.96;100.00;100183.19;4959363;28;19961;-88
2023/07/10 09:59:35;;;;;;;;;;;;;;;11.88;100.00;100186.13;4958480;28;19918;-86
2023/07/10 10:02:19;;;;;;;;;;;;;;;11.77;100.00;100175.09;4976451;28;20289;-85
2023/07/10 10:04:49;;;;;;;;;;;;;;;11.96;100.00;100175.22;4967130;28;19925;-90
2023/07/10 10:07:19;;;;;;;;;;;;;;;12.49;100.00;100173.81;4975050;28;19961;-87
2023/07/10 10:09:45;;;;;;;;;;;;;;;12.76;100.00;100174.34;4959009;28;19985;-87
2023/07/10 10:12:18;;;;;;;;;;;;;;;12.86;100.00;100183.66;4958891;28;20440;-87
2023/07/10 10:14:49;;;;;;;;;;;;;;;12.76;100.00;100174.34;4954493;28;20258;-84
2023/07/10 10:17:17;;;;;;;;;;;;;;;13.02;100.00;100177.59;4958749;28;19918;-87
2023/07/10 10:19:45;;;;;;;;;;;;;;;13.16;100.00;100176.97;4958764;28;19925;-86
2023/07/10 10:22:11;;;;;;;;;;;;;;;13.00;100.00;100174.16;4974732;28;19918;-87
2023/07/10 10:24:37;;;;;;;;;;;;;;;12.41;100.00;100167.97;4975251;28;19924;-87
2023/07/10 10:27:05;;;;;;;;;;;;;;;12.15;100.00;100164.66;4954272;28;19924;-87
2023/07/10 10:30:09;;;;;;;;;;;;;;;12.53;100.00;100165.63;4958435;28;20429;-90
2023/07/10 10:32:39;;;;;;;;;;;;;;;12.83;100.00;100159.84;4905639;29;20386;-86
2023/07/10 10:35:12;;;;;;;;;;;;;;;12.89;100.00;100159.56;4889138;29;20476;-86
2023/07/10 10:37:49;;;;;;;;;;;;;;;12.23;100.00;100161.69;4925390;28;20023;-87
2023/07/10 10:40:28;;;;;;;;;;;;;;;12.52;100.00;100161.28;4958380;28;20289;-88
2023/07/10 10:42:59;;;;;;;;;;;;;;;12.78;100.00;100153.91;4975513;28;19922;-86
2023/07/10 10:45:30;;;;;;;;;;;;;;;12.94;100.00;100154.03;4958103;28;19925;-87
2023/07/10 10:48:05;;;;;;;;;;;;;;;12.59;100.00;100150.34;4958342;28;20072;-86
2023/07/10 10:50:36;;;;;;;;;;;;;;;12.90;100.00;100166.59;4957559;28;19930;-89
2023/07/10 10:53:19;;;;;;;;;;;;;;;12.98;100.00;100162.75;4974053;28;19922;-88
2023/07/10 10:56:03;;;;;;;;;;;;;;;12.66;100.00;100155.31;4967565;28;19928;-87
2023/07/10 10:58:28;;;;;;;;;;;;;;;12.60;100.00;100168.88;4967418;28;19933;-87
2023/07/10 11:00:56;;;;;;;;;;;;;;;12.85;100.00;100160.63;4984878;28;19921;-88
2023/07/10 11:03:39;;;;;;;;;;;;;;;12.95;100.00;100161.06;4984465;28;19965;-88
2023/07/10 11:06:23;;;;;;;;;;;;;;;12.45;100.00;100162.47;4967535;28;19918;-87
2023/07/10 11:08:50;;;;;;;;;;;;;;;12.00;100.00;100155.59;4983790;28;19980;-87
2023/07/10 11:11:35;;;;;;;;;;;;;;;11.91;100.00;100138.19;4985111;28;19919;-86
2023/07/10 11:14:02;;;;;;;;;;;;;;;12.39;100.00;100144.13;4984564;28;19965;-86
2023/07/10 11:16:29;;;;;;;;;;;;;;;12.65;100.00;100147.41;4967219;28;19929;-87
2023/07/10 11:18:54;;;;;;;;;;;;;;;12.79;100.00;100144.97;4967402;28;19925;-86
2023/07/10 11:21:19;;;;;;;;;;;;;;;12.33;100.00;100145.28;4963597;28;20289;-86
2023/07/10 11:23:51;;;;;;;;;;;;;;;12.28;100.00;100154.38;4983860;28;19922;-89
2023/07/10 11:26:25;;;;;;;;;;;;;;;12.63;100.00;100143.94;4983284;28;19918;-87
2023/07/10 11:28:55;;;;;;;;;;;;;;;12.83;100.00;100143.06;4984128;28;19973;-87
2023/07/10 11:31:34;;;;;;;;;;;;;;;12.83;100.00;100146.56;4984682;28;19917;-88
2023/07/10 11:34:05;;;;;;;;;;;;;;;12.72;100.00;100149.72;4984418;28;20380;-87
2023/07/10 11:36:33;;;;;;;;;;;;;;;13.09;100.00;100147.13;4966968;28;20432;-87
2023/07/10 11:39:11;;;;;;;;;;;;;;;13.14;100.00;100149.56;4983005;28;20009;-87
2023/07/10 11:41:42;;;;;;;;;;;;;;;13.08;100.00;100146.28;4966378;28;19918;-87
2023/07/10 11:44:14;;;;;;;;;;;;;;;12.70;100.00;100137.41;4966535;28;20328;-88
2023/07/10 11:46:54;;;;;;;;;;;;;;;12.97;100.00;100137.06;4966661;28;19922;-88
2023/07/10 11:49:24;;;;;;;;;;;;;;;13.25;100.00;100132.16;4984114;28;19967;-84
2023/07/10 11:52:07;;;;;;;;;;;;;;;13.23;100.00;100120.72;4981324;28;20292;-87
2023/07/10 11:54:33;;;;;;;;;;;;;;;12.64;100.00;100124.44;4995262;28;19976;-87
2023/07/10 11:57:01;;;;;;;;;;;;;;;12.93;100.00;100114.22;5004325;28;20320;-88
2023/07/10 11:59:26;;;;;;;;;;;;;;;13.06;100.00;100120.66;5002923;28;19973;-87
2023/07/10 12:01:51;;;;;;;;;;;;;;;13.13;100.00;100122.13;5003584;28;20363;-86
2023/07/10 12:04:18;;;;;;;;;;;;;;;12.73;100.00;100123.97;4985892;28;19921;-86
2023/07/10 12:06:44;;;;;;;;;;;;;;;12.87;100.00;100110.91;4983752;28;19918;-87
2023/07/10 12:09:09;;;;;;;;;;;;;;;13.07;100.00;100107.31;4985701;28;20373;-87
2023/07/10 12:11:39;;;;;;;;;;;;;;;13.20;100.00;100118.22;4985385;28;19918;-86
2023/07/10 12:14:05;;;;;;;;;;;;;;;13.01;100.00;100122.69;4984478;28;19918;-87
2023/07/10 12:16:33;;;;;;;;;;;;;;;13.10;100.00;100116.94;4985658;28;19968;-86
2023/07/10 12:19:02;;;;;;;;;;;;;;;13.18;100.00;100113.88;5003394;28;19918;-86
2023/07/10 12:21:27;;;;;;;;;;;;;;;13.25;100.00;100113.50;4992916;28;19961;-87
2023/07/10 12:23:54;;;;;;;;;;;;;;;12.89;100.00;100119.69;4983432;28;19949;-87
2023/07/10 12:26:19;;;;;;;;;;;;;;;13.01;100.00;100112.06;4985399;28;19918;-88
2023/07/10 12:28:44;;;;;;;;;;;;;;;13.15;100.00;100106.94;5002906;28;19924;-86
2023/07/10 12:31:12;;;;;;;;;;;;;;;13.13;100.00;100108.81;4985429;28;19957;-85
2023/07/10 12:33:39;;;;;;;;;;;;;;;12.59;100.00;100099.81;4984984;28;19922;-86
2023/07/10 12:36:06;;;;;;;;;;;;;;;13.03;100.00;100100.38;5002878;28;19918;-86
2023/07/10 12:38:32;;;;;;;;;;;;;;;13.16;100.00;100098.03;5001605;28;19921;-86
2023/07/10 12:40:57;;;;;;;;;;;;;;;13.27;100.00;100098.34;5002520;28;19929;-86
2023/07/10 12:43:24;;;;;;;;;;;;;;;12.92;100.00;100094.72;5002801;28;19975;-86
2023/07/10 12:46:04;;;;;;;;;;;;;;;12.29;100.00;100095.84;5003145;28;19922;-86
2023/07/10 12:48:31;;;;;;;;;;;;;;;12.49;100.00;100084.31;5001831;28;19934;-88
2023/07/10 12:50:58;;;;;;;;;;;;;;;12.89;100.00;100082.44;5002585;28;20363;-89
2023/07/10 12:53:24;;;;;;;;;;;;;;;13.09;100.00;100085.94;5001095;28;19965;-87
2023/07/10 12:55:54;;;;;;;;;;;;;;;13.23;100.00;100079.97;4984967;28;19975;-88
2023/07/10 12:58:21;;;;;;;;;;;;;;;12.79;100.00;100081.16;4985168;28;19922;-87
2023/07/10 13:00:47;;;;;;;;;;;;;;;12.94;100.00;100079.56;5001062;28;19921;-87
2023/07/10 13:03:20;;;;;;;;;;;;;;;13.16;100.00;100083.84;5002651;28;19918;-88
2023/07/10 13:05:50;;;;;;;;;;;;;;;13.22;100.00;100084.41;5002353;28;19921;-87
2023/07/10 13:08:15;;;;;;;;;;;;;;;12.84;100.00;100081.81;5000096;28;19918;-86
2023/07/10 13:10:45;;;;;;;;;;;;;;;12.84;100.00;100084.47;5002508;28;20399;-87
2023/07/10 13:13:15;;;;;;;;;;;;;;;13.06;100.00;100078.09;4985178;28;19922;-90
2023/07/10 13:15:41;;;;;;;;;;;;;;;13.22;100.00;100083.53;5002079;28;19925;-91
2023/07/10 13:18:17;;;;;;;;;;;;;;;13.17;100.00;100085.56;5001837;28;19921;-88
2023/07/10 13:20:42;;;;;;;;;;;;;;;12.94;100.00;100074.25;4984450;28;19918;-86
2023/07/10 13:23:07;;;;;;;;;;;;;;;13.15;100.00;100077.66;5001176;28;20369;-86
2023/07/10 13:25:33;;;;;;;;;;;;;;;13.19;100.00;100079.22;5002614;28;19914;-87
2023/07/10 13:28:08;;;;;;;;;;;;;;;13.13;100.00;100070.69;5001831;28;19921;-88
2023/07/10 13:30:33;;;;;;;;;;;;;;;13.01;100.00;100058.84;5001576;28;19917;-87
2023/07/10 13:32:59;;;;;;;;;;;;;;;13.21;100.00;100069.38;4984769;28;19973;-87
2023/07/10 13:35:25;;;;;;;;;;;;;;;13.37;100.00;100071.31;5002442;28;19918;-88
2023/07/10 13:37:50;;;;;;;;;;;;;;;13.11;100.00;100069.91;4999545;28;19921;-87
2023/07/10 13:40:21;;;;;;;;;;;;;;;13.13;100.00;100058.25;4984521;28;19928;-88
2023/07/10 13:42:46;;;;;;;;;;;;;;;13.25;100.00;100075.41;5000457;28;19988;-91
2023/07/10 13:45:11;;;;;;;;;;;;;;;13.31;100.00;100083.09;4985432;28;20377;-88
2023/07/10 13:47:36;;;;;;;;;;;;;;;13.11;100.00;100064.59;5002343;28;19960;-87
2023/07/10 13:50:02;;;;;;;;;;;;;;;12.46;100.00;100052.56;4984267;28;19925;-89
2023/07/10 13:52:28;;;;;;;;;;;;;;;12.15;100.00;100050.44;4983142;28;19953;-90
2023/07/10 13:54:54;;;;;;;;;;;;;;;12.51;100.00;100052.38;4983947;28;20371;-90
2023/07/10 13:57:22;;;;;;;;;;;;;;;12.78;100.00;100063.50;5001946;28;19917;-87
2023/07/10 13:59:48;;;;;;;;;;;;;;;12.98;100.00;100064.31;5000795;28;19925;-87
2023/07/10 14:02:28;;;;;;;;;;;;;;;12.98;100.00;100049.22;5002190;28;19919;-90
2023/07/10 14:04:57;;;;;;;;;;;;;;;12.64;100.00;100050.00;5002323;28;19964;-86
2023/07/10 14:07:23;;;;;;;;;;;;;;;12.94;100.00;100046.78;4981899;28;19918;-87
2023/07/10 14:09:48;;;;;;;;;;;;;;;13.11;100.00;100060.13;4984159;28;20415;-90
2023/07/10 14:12:14;;;;;;;;;;;;;;;13.21;100.00;100056.09;4984779;28;19939;-86
2023/07/10 14:14:39;;;;;;;;;;;;;;;12.97;100.00;100049.28;5001586;28;19918;-87
2023/07/10 14:17:05;;;;;;;;;;;;;;;13.12;100.00;100050.38;5001678;28;19967;-86
2023/07/10 14:19:30;;;;;;;;;;;;;;;13.22;100.00;100046.28;5001504;28;19913;-88
2023/07/10 14:21:55;;;;;;;;;;;;;;;13.33;100.00;100045.78;4999918;28;19917;-86
2023/07/10 14:24:21;;;;;;;;;;;;;;;12.90;100.00;100048.72;5001536;28;19932;-86
2023/07/10 14:26:47;;;;;;;;;;;;;;;12.90;100.00;100040.75;5001734;28;19925;-86
2023/07/10 14:29:16;;;;;;;;;;;;;;;13.12;100.00;100045.88;5002039;28;19988;-86
2023/07/10 14:31:41;;;;;;;;;;;;;;;13.20;100.00;100038.38;5004855;28;19924;-87
2023/07/10 14:34:06;;;;;;;;;;;;;;;13.17;100.00;100045.66;5005524;28;19921;-88
2023/07/10 14:36:32;;;;;;;;;;;;;;;12.74;100.00;100035.31;5005381;28;19949;-92
2023/07/10 14:38:57;;;;;;;;;;;;;;;13.06;100.00;100038.22;5004053;28;20023;-87
2023/07/10 14:41:23;;;;;;;;;;;;;;;13.24;100.00;100052.41;5004971;28;19918;-86
2023/07/10 14:43:49;;;;;;;;;;;;;;;13.34;100.00;100051.03;5004783;28;19925;-86
2023/07/10 14:46:16;;;;;;;;;;;;;;;13.12;100.00;100045.88;5005144;28;20033;-90
2023/07/10 14:52:40;;;;;;;;;;;;;;;13.29;100.00;100046.84;4943443;29;19974;-93
2023/07/10 14:55:05;;;;;;;;;;;;;;;13.31;100.00;100029.88;4987350;28;19922;-87
2023/07/10 14:57:32;;;;;;;;;;;;;;;12.75;100.00;100029.06;4985013;28;20403;-88
2023/07/10 14:59:58;;;;;;;;;;;;;;;13.09;100.00;100024.75;4981557;28;19925;-86
2023/07/10 15:02:25;;;;;;;;;;;;;;;13.28;100.00;100027.38;4984836;28;20292;-86
2023/07/10 15:04:50;;;;;;;;;;;;;;;13.37;100.00;100024.28;4984819;28;20408;-89
2023/07/10 15:07:16;;;;;;;;;;;;;;;13.21;100.00;100034.81;4962779;28;19925;-84
2023/07/10 15:09:42;;;;;;;;;;;;;;;13.25;100.00;100023.03;4983994;28;19969;-86
2023/07/10 15:12:22;;;;;;;;;;;;;;;13.43;100.00;100033.72;4964064;28;19926;-84
2023/07/10 15:14:48;;;;;;;;;;;;;;;13.15;100.00;100028.94;4964978;28;19953;-84
2023/07/10 15:17:16;;;;;;;;;;;;;;;13.01;100.00;100008.31;4966695;28;19972;-85
2023/07/10 15:19:41;;;;;;;;;;;;;;;12.78;100.00;100020.94;4965764;28;20364;-86
2023/07/10 15:22:11;;;;;;;;;;;;;;;12.75;100.00;100021.09;4962565;28;19985;-87
2023/07/10 15:24:36;;;;;;;;;;;;;;;12.21;100.00;100014.78;4965921;28;19925;-87
2023/07/10 15:27:01;;;;;;;;;;;;;;;12.27;100.00;100017.13;4962644;28;20396;-86
2023/07/10 15:29:28;;;;;;;;;;;;;;;12.41;100.00;100016.50;4965202;28;19932;-86
2023/07/10 15:31:58;;;;;;;;;;;;;;;12.10;100.00;100012.63;4984235;28;20077;-85
2023/07/10 15:34:24;;;;;;;;;;;;;;;11.93;100.00;100013.38;4965368;28;19922;-85
2023/07/10 15:36:49;;;;;;;;;;;;;;;12.20;100.00;100015.72;4964616;28;19925;-86
2023/07/10 15:39:15;;;;;;;;;;;;;;;12.04;100.00;100011.09;4984604;28;19922;-85
2023/07/10 15:41:40;;;;;;;;;;;;;;;11.89;100.00;100011.78;4967395;28;19918;-86
2023/07/10 15:44:12;;;;;;;;;;;;;;;12.02;100.00;100002.34;4968181;28;20300;-86
2023/07/10 15:46:43;;;;;;;;;;;;;;;12.09;100.00;100001.13;4982960;28;19960;-87
2023/07/10 15:49:27;;;;;;;;;;;;;;;11.71;100.00;99995.72;4967054;28;20424;-86
2023/07/10 15:51:55;;;;;;;;;;;;;;;11.94;100.00;99991.22;4983664;28;19922;-85
2023/07/10 15:54:22;;;;;;;;;;;;;;;13.19;100.00;99999.41;4976534;28;19921;-82
2023/07/10 15:56:48;;;;;;;;;;;;;;;12.87;100.00;99991.22;4986084;28;19929;-85
2023/07/10 15:59:17;;;;;;;;;;;;;;;12.21;100.00;99988.22;5004148;28;20000;-85
2023/07/10 16:01:44;;;;;;;;;;;;;;;12.11;100.00;99993.97;4985856;28;20046;-83
2023/07/10 16:04:20;;;;;;;;;;;;;;;11.58;100.00;99986.56;5003619;28;19956;-85
2023/07/10 16:06:45;;;;;;;;;;;;;;;11.74;100.00;99989.41;5001714;28;19914;-87
2023/07/10 16:09:11;;;;;;;;;;;;;;;11.86;100.00;99993.31;4982913;28;20435;-85
2023/07/10 16:11:37;;;;;;;;;;;;;;;11.36;100.00;99984.84;4986141;28;19960;-85
2023/07/10 16:14:02;;;;;;;;;;;;;;;11.50;100.00;99983.38;4985514;28;19918;-85
2023/07/10 16:16:28;;;;;;;;;;;;;;;11.67;100.00;99980.00;5003326;28;19922;-85
2023/07/10 16:18:53;;;;;;;;;;;;;;;11.42;100.00;99978.41;4979887;28;19968;-85
2023/07/10 16:21:20;;;;;;;;;;;;;;;11.39;100.00;99982.06;4985047;28;19917;-85
2023/07/10 16:23:46;;;;;;;;;;;;;;;11.57;100.00;99969.78;4984782;28;19926;-85
2023/07/10 16:26:13;;;;;;;;;;;;;;;11.46;100.00;99961.44;4985870;28;19925;-84
2023/07/10 16:28:39;;;;;;;;;;;;;;;11.25;100.00;99971.19;4985704;28;19918;-83
2023/07/10 16:31:04;;;;;;;;;;;;;;;11.47;100.00;99967.59;5001223;28;20452;-86
2023/07/10 16:33:30;;;;;;;;;;;;;;;11.54;100.00;99975.22;4986280;28;19928;-84
2023/07/10 16:35:56;;;;;;;;;;;;;;;11.24;100.00;99975.63;4985153;28;20009;-86
2023/07/10 16:38:22;;;;;;;;;;;;;;;11.53;100.00;99972.63;4982173;28;19918;-85
2023/07/10 16:40:48;;;;;;;;;;;;;;;11.62;100.00;99970.44;4985142;28;19961;-85
2023/07/10 16:43:20;;;;;;;;;;;;;;;11.16;100.00;99969.78;4985021;28;20280;-85
2023/07/10 16:45:47;;;;;;;;;;;;;;;11.51;100.00;99972.72;4985770;28;20015;-87
2023/07/10 16:48:22;;;;;;;;;;;;;;;11.63;100.00;99976.59;4992936;28;19928;-85
2023/07/10 16:50:52;;;;;;;;;;;;;;;11.17;100.00;99971.50;4984788;28;19929;-85
2023/07/10 16:53:37;;;;;;;;;;;;;;;11.33;100.00;99971.72;4999290;28;20685;-90
2023/07/10 16:56:03;;;;;;;;;;;;;;;11.58;100.00;99971.53;4998545;28;19921;-85
2023/07/10 16:58:30;;;;;;;;;;;;;;;11.27;100.00;99969.31;4983614;28;20396;-85
2023/07/10 17:00:56;;;;;;;;;;;;;;;11.40;100.00;99974.97;4985317;28;19922;-86
2023/07/10 17:03:28;;;;;;;;;;;;;;;11.64;100.00;99979.19;4984198;28;19928;-85
2023/07/10 17:05:53;;;;;;;;;;;;;;;11.96;100.00;99973.41;4984896;28;19921;-88
2023/07/10 17:08:25;;;;;;;;;;;;;;;10.81;100.00;99971.25;4983879;28;19973;-88
2023/07/10 17:10:51;;;;;;;;;;;;;;;10.91;100.00;99977.88;4985709;28;20016;-86
2023/07/10 17:13:18;;;;;;;;;;;;;;;10.93;100.00;99969.88;5001432;28;19968;-86
2023/07/10 17:15:44;;;;;;;;;;;;;;;10.16;100.00;99969.34;5002503;28;19923;-89
2023/07/10 17:18:15;;;;;;;;;;;;;;;10.44;100.00;99967.44;4980147;28;20295;-88
2023/07/10 17:20:44;;;;;;;;;;;;;;;10.83;100.00;99975.56;5001780;28;19926;-85
2023/07/10 17:23:14;;;;;;;;;;;;;;;10.13;100.00;99968.56;4982659;28;19949;-87
2023/07/10 17:25:42;;;;;;;;;;;;;;;10.32;100.00;99966.06;4984410;28;19921;-88
2023/07/10 17:28:11;;;;;;;;;;;;;;;10.42;100.00;99962.19;5002516;28;19926;-87
2023/07/10 17:30:36;;;;;;;;;;;;;;;10.14;100.00;99965.88;5001770;28;19924;-87
2023/07/10 17:33:02;;;;;;;;;;;;;;;10.00;100.00;99952.28;5002157;28;19918;-87
2023/07/10 17:35:27;;;;;;;;;;;;;;;10.27;100.00;99949.50;4984881;28;20004;-85
2023/07/10 17:37:53;;;;;;;;;;;;;;;10.37;100.00;99940.34;4982520;28;20261;-89
2023/07/10 17:40:18;;;;;;;;;;;;;;;9.76;100.00;99948.78;5004679;28;19964;-91
2023/07/10 17:42:43;;;;;;;;;;;;;;;10.08;100.00;99942.28;4984438;28;20380;-89
2023/07/10 17:45:16;;;;;;;;;;;;;;;10.33;100.00;99944.88;4985201;28;19930;-87
2023/07/10 17:47:41;;;;;;;;;;;;;;;9.84;100.00;99949.34;5002559;28;19921;-87
2023/07/10 17:50:10;;;;;;;;;;;;;;;9.92;100.00;99949.94;4985295;28;19976;-90
2023/07/10 17:52:36;;;;;;;;;;;;;;;10.22;100.00;99947.03;4976689;28;20395;-88
2023/07/10 17:55:13;;;;;;;;;;;;;;;10.29;100.00;99953.84;4983661;28;19926;-88
2023/07/10 17:57:38;;;;;;;;;;;;;;;9.63;100.00;99949.22;5002353;28;19948;-85
2023/07/10 18:00:04;;;;;;;;;;;;;;;10.10;100.00;99942.22;4977374;28;19925;-89
2023/07/10 18:02:33;;;;;;;;;;;;;;;10.32;100.00;99948.47;4983987;28;19917;-87
2023/07/10 18:04:59;;;;;;;;;;;;;;;10.04;100.00;99943.31;4986081;28;19917;-92
2023/07/10 18:07:25;;;;;;;;;;;;;;;9.82;100.00;99946.75;4986805;28;20501;-86
2023/07/10 18:09:50;;;;;;;;;;;;;;;10.21;100.00;99937.38;5004836;28;19921;-86
2023/07/10 18:12:19;;;;;;;;;;;;;;;10.47;100.00;99939.03;5006108;28;19918;-92
2023/07/10 18:14:47;;;;;;;;;;;;;;;9.97;100.00;99937.41;4987269;28;20380;-85
2023/07/10 18:17:19;;;;;;;;;;;;;;;10.09;100.00;99940.50;5002011;28;19925;-85
2023/07/10 18:19:44;;;;;;;;;;;;;;;10.39;100.00;99938.47;5003960;28;19933;-86
2023/07/10 18:22:15;;;;;;;;;;;;;;;10.30;100.00;99934.34;4980461;28;20277;-86
2023/07/10 18:24:41;;;;;;;;;;;;;;;9.97;100.00;99937.41;5005166;28;19918;-86
2023/07/10 18:27:14;;;;;;;;;;;;;;;10.27;100.00;99941.56;4987553;28;19929;-85
2023/07/10 18:29:40;;;;;;;;;;;;;;;10.52;100.00;99944.16;5005613;28;19925;-88
2023/07/10 18:32:12;;;;;;;;;;;;;;;12.63;100.00;99925.97;5004479;28;19922;-85
2023/07/10 18:34:37;;;;;;;;;;;;;;;10.97;100.00;99937.03;4988613;28;19976;-86
2023/07/10 18:37:08;;;;;;;;;;;;;;;10.89;100.00;99939.97;4983744;28;19925;-87
2023/07/10 18:39:33;;;;;;;;;;;;;;;10.41;100.00;99946.38;5003641;28;20013;-87
2023/07/10 18:41:58;;;;;;;;;;;;;;;10.52;100.00;99944.16;4988033;28;20017;-85
2023/07/10 18:44:24;;;;;;;;;;;;;;;10.77;100.00;99951.97;5004708;28;19969;-85
2023/07/10 18:46:49;;;;;;;;;;;;;;;10.56;100.00;99940.44;5004972;28;20372;-86
2023/07/10 18:49:18;;;;;;;;;;;;;;;10.34;100.00;99951.03;4987457;28;19925;-87
2023/07/10 18:51:46;;;;;;;;;;;;;;;10.66;100.00;99947.09;5000118;28;21323;-84
2023/07/10 18:54:16;;;;;;;;;;;;;;;10.88;100.00;99947.09;5004275;28;19921;-87
2023/07/10 18:56:41;;;;;;;;;;;;;;;10.22;100.00;99940.88;4986678;28;19922;-90
2023/07/10 18:59:18;;;;;;;;;;;;;;;10.54;100.00;99944.94;4987327;28;19976;-86
2023/07/10 19:01:43;;;;;;;;;;;;;;;10.77;100.00;99944.00;4986986;28;19968;-85
2023/07/10 19:04:08;;;;;;;;;;;;;;;10.35;100.00;99942.16;4987183;28;19918;-86
2023/07/10 19:06:38;;;;;;;;;;;;;;;10.47;100.00;99949.63;4987429;28;19917;-85
2023/07/10 19:09:23;;;;;;;;;;;;;;;10.70;100.00;99942.53;4985362;28;20020;-86
2023/07/10 19:11:49;;;;;;;;;;;;;;;10.58;100.00;99941.25;5004929;28;19925;-88
2023/07/10 19:14:21;;;;;;;;;;;;;;;10.36;100.00;99938.59;4987110;28;19918;-85
2023/07/10 19:16:47;;;;;;;;;;;;;;;10.75;100.00;99945.00;4985666;28;19924;-85
2023/07/10 19:19:17;;;;;;;;;;;;;;;10.92;100.00;99942.50;5004135;28;19918;-84
2023/07/10 19:21:42;;;;;;;;;;;;;;;10.36;100.00;99938.59;4985717;28;19925;-85
2023/07/10 19:24:17;;;;;;;;;;;;;;;10.77;100.00;99937.84;4986118;28;19926;-89
2023/07/10 19:26:43;;;;;;;;;;;;;;;11.01;100.00;99942.13;5000051;28;19917;-87
2023/07/10 19:29:08;;;;;;;;;;;;;;;10.31;100.00;99937.88;5004594;28;20412;-86
2023/07/10 19:31:34;;;;;;;;;;;;;;;10.68;100.00;99941.75;4980292;28;19940;-87
2023/07/10 19:33:59;;;;;;;;;;;;;;;10.95;100.00;99944.19;5004710;28;20435;-88
2023/07/10 19:36:25;;;;;;;;;;;;;;;10.63;100.00;99943.72;4981164;28;20360;-85
2023/07/10 19:38:51;;;;;;;;;;;;;;;10.55;100.00;99941.38;4985460;28;20369;-84
2023/07/10 19:41:16;;;;;;;;;;;;;;;10.83;100.00;99949.06;5003715;28;19980;-84
2023/07/10 19:43:41;;;;;;;;;;;;;;;10.95;100.00;99950.34;5003852;28;20836;-87
2023/07/10 19:46:21;;;;;;;;;;;;;;;10.41;100.00;99941.91;5004474;28;19925;-87
2023/07/10 19:48:47;;;;;;;;;;;;;;;10.74;100.00;99949.44;5002105;28;20332;-88
2023/07/10 19:51:13;;;;;;;;;;;;;;;10.98;100.00;99944.91;5004243;28;19926;-88
2023/07/10 19:53:38;;;;;;;;;;;;;;;10.40;100.00;99949.91;5001456;28;19926;-88
2023/07/10 19:56:14;;;;;;;;;;;;;;;10.67;100.00;99953.25;4986663;28;20418;-87
2023/07/10 19:58:41;;;;;;;;;;;;;;;10.96;100.00;99948.53;5002801;28;19952;-89
2023/07/10 20:01:08;;;;;;;;;;;;;;;10.66;100.00;99954.19;4986468;28;20391;-87
2023/07/10 20:03:34;;;;;;;;;;;;;;;10.58;100.00;99953.63;4985946;28;19914;-88
2023/07/10 20:06:03;;;;;;;;;;;;;;;10.84;100.00;99952.56;4985184;28;19924;-90
2023/07/10 20:08:30;;;;;;;;;;;;;;;11.03;100.00;99950.03;5000816;28;19922;-88
2023/07/10 20:10:56;;;;;;;;;;;;;;;10.39;100.00;99946.44;4986085;28;19917;-88
2023/07/10 20:13:23;;;;;;;;;;;;;;;10.80;100.00;99958.91;4985569;28;19921;-87
2023/07/10 20:15:54;;;;;;;;;;;;;;;11.04;100.00;99952.59;4982094;28;19925;-89
2023/07/10 20:18:22;;;;;;;;;;;;;;;11.58;100.00;99941.44;5001807;28;20008;-87